sensor_id;sensor_type;location;lat;lon;timestamp;P1;durP1;ratioP1;P2;durP2;ratioP2
57561;SDS011;43397;51.530;5.974;2024-02-15T00:01:46;40.83;;;25.40;;
57561;SDS011;43397;51.530;5.974;2024-02-15T00:04:11;42.38;;;25.58;;
57561;SDS011;43397;51.530;5.974;2024-02-15T00:06:37;44.03;;;25.98;;
57561;SDS011;43397;51.530;5.974;2024-02-15T00:09:03;39.60;;;23.48;;
57561;SDS011;43397;51.530;5.974;2024-02-15T00:11:28;45.08;;;25.00;;
57561;SDS011;43397;51.530;5.974;2024-02-15T00:13:54;39.30;;;23.55;;
57561;SDS011;43397;51.530;5.974;2024-02-15T00:16:21;42.58;;;24.50;;
57561;SDS011;43397;51.530;5.974;2024-02-15T00:18:47;43.72;;;22.52;;
57561;SDS011;43397;51.530;5.974;2024-02-15T00:21:12;35.75;;;22.88;;
57561;SDS011;43397;51.530;5.974;2024-02-15T00:23:40;40.03;;;20.75;;
57561;SDS011;43397;51.530;5.974;2024-02-15T00:26:06;32.40;;;22.13;;
57561;SDS011;43397;51.530;5.974;2024-02-15T00:28:32;38.97;;;22.83;;
57561;SDS011;43397;51.530;5.974;2024-02-15T00:30:58;34.67;;;20.80;;
57561;SDS011;43397;51.530;5.974;2024-02-15T00:33:25;40.20;;;21.90;;
57561;SDS011;43397;51.530;5.974;2024-02-15T00:35:50;33.17;;;20.60;;
57561;SDS011;43397;51.530;5.974;2024-02-15T00:38:16;36.30;;;21.80;;
57561;SDS011;43397;51.530;5.974;2024-02-15T00:40:42;34.40;;;21.60;;
57561;SDS011;43397;51.530;5.974;2024-02-15T00:43:07;36.72;;;22.23;;
57561;SDS011;43397;51.530;5.974;2024-02-15T00:45:33;35.10;;;21.25;;
57561;SDS011;43397;51.530;5.974;2024-02-15T00:47:59;40.00;;;21.70;;
57561;SDS011;43397;51.530;5.974;2024-02-15T00:50:26;41.83;;;22.70;;
57561;SDS011;43397;51.530;5.974;2024-02-15T00:52:51;37.30;;;21.02;;
57561;SDS011;43397;51.530;5.974;2024-02-15T00:55:17;34.67;;;21.02;;
57561;SDS011;43397;51.530;5.974;2024-02-15T00:57:43;34.20;;;21.38;;
57561;SDS011;43397;51.530;5.974;2024-02-15T01:00:09;40.20;;;21.65;;
57561;SDS011;43397;51.530;5.974;2024-02-15T01:02:35;35.50;;;22.10;;
57561;SDS011;43397;51.530;5.974;2024-02-15T01:05:01;37.72;;;21.73;;
57561;SDS011;43397;51.530;5.974;2024-02-15T01:07:28;36.70;;;21.00;;
57561;SDS011;43397;51.530;5.974;2024-02-15T01:09:54;42.75;;;22.05;;
57561;SDS011;43397;51.530;5.974;2024-02-15T01:12:20;38.38;;;21.50;;
57561;SDS011;43397;51.530;5.974;2024-02-15T01:14:45;30.08;;;17.80;;
57561;SDS011;43397;51.530;5.974;2024-02-15T01:17:11;37.60;;;20.58;;
57561;SDS011;43397;51.530;5.974;2024-02-15T01:19:36;35.13;;;19.92;;
57561;SDS011;43397;51.530;5.974;2024-02-15T01:22:02;30.42;;;20.25;;
57561;SDS011;43397;51.530;5.974;2024-02-15T01:24:30;29.42;;;19.17;;
57561;SDS011;43397;51.530;5.974;2024-02-15T01:26:55;32.22;;;20.55;;
57561;SDS011;43397;51.530;5.974;2024-02-15T01:29:21;35.13;;;19.92;;
57561;SDS011;43397;51.530;5.974;2024-02-15T01:31:47;30.38;;;19.35;;
57561;SDS011;43397;51.530;5.974;2024-02-15T01:34:12;33.22;;;20.55;;
57561;SDS011;43397;51.530;5.974;2024-02-15T01:36:38;44.72;;;27.95;;
57561;SDS011;43397;51.530;5.974;2024-02-15T01:39:04;58.60;;;35.28;;
57561;SDS011;43397;51.530;5.974;2024-02-15T01:41:31;65.93;;;39.45;;
57561;SDS011;43397;51.530;5.974;2024-02-15T01:43:56;73.38;;;41.78;;
57561;SDS011;43397;51.530;5.974;2024-02-15T01:46:22;71.50;;;43.55;;
57561;SDS011;43397;51.530;5.974;2024-02-15T01:48:48;64.00;;;37.88;;
57561;SDS011;43397;51.530;5.974;2024-02-15T01:51:14;56.50;;;32.65;;
57561;SDS011;43397;51.530;5.974;2024-02-15T01:53:41;45.50;;;28.20;;
57561;SDS011;43397;51.530;5.974;2024-02-15T01:56:07;45.33;;;25.50;;
57561;SDS011;43397;51.530;5.974;2024-02-15T01:58:34;32.97;;;21.58;;
57561;SDS011;43397;51.530;5.974;2024-02-15T02:01:00;31.88;;;19.88;;
57561;SDS011;43397;51.530;5.974;2024-02-15T02:03:27;27.00;;;18.70;;
57561;SDS011;43397;51.530;5.974;2024-02-15T02:05:52;25.60;;;15.18;;
57561;SDS011;43397;51.530;5.974;2024-02-15T02:08:18;25.70;;;15.27;;
57561;SDS011;43397;51.530;5.974;2024-02-15T02:10:44;24.30;;;14.43;;
57561;SDS011;43397;51.530;5.974;2024-02-15T02:13:10;23.95;;;13.15;;
57561;SDS011;43397;51.530;5.974;2024-02-15T02:15:37;22.00;;;13.38;;
57561;SDS011;43397;51.530;5.974;2024-02-15T02:18:03;24.88;;;13.52;;
57561;SDS011;43397;51.530;5.974;2024-02-15T02:20:29;22.33;;;12.50;;
57561;SDS011;43397;51.530;5.974;2024-02-15T02:22:57;24.63;;;12.75;;
57561;SDS011;43397;51.530;5.974;2024-02-15T02:25:29;18.75;;;11.88;;
57561;SDS011;43397;51.530;5.974;2024-02-15T02:27:55;21.52;;;13.80;;
57561;SDS011;43397;51.530;5.974;2024-02-15T02:30:21;20.17;;;12.13;;
57561;SDS011;43397;51.530;5.974;2024-02-15T02:32:47;19.17;;;11.77;;
57561;SDS011;43397;51.530;5.974;2024-02-15T02:35:13;18.85;;;10.45;;
57561;SDS011;43397;51.530;5.974;2024-02-15T02:37:39;22.02;;;9.90;;
57561;SDS011;43397;51.530;5.974;2024-02-15T02:40:05;18.42;;;10.80;;
57561;SDS011;43397;51.530;5.974;2024-02-15T02:42:33;19.20;;;10.48;;
57561;SDS011;43397;51.530;5.974;2024-02-15T02:44:58;17.48;;;10.05;;
57561;SDS011;43397;51.530;5.974;2024-02-15T02:47:24;19.92;;;11.65;;
57561;SDS011;43397;51.530;5.974;2024-02-15T02:49:50;20.08;;;10.15;;
57561;SDS011;43397;51.530;5.974;2024-02-15T02:52:16;18.15;;;11.70;;
57561;SDS011;43397;51.530;5.974;2024-02-15T02:54:42;14.38;;;10.05;;
57561;SDS011;43397;51.530;5.974;2024-02-15T02:57:08;18.00;;;9.57;;
57561;SDS011;43397;51.530;5.974;2024-02-15T02:59:35;22.52;;;11.20;;
57561;SDS011;43397;51.530;5.974;2024-02-15T03:02:01;17.80;;;9.40;;
57561;SDS011;43397;51.530;5.974;2024-02-15T03:04:26;18.17;;;9.20;;
57561;SDS011;43397;51.530;5.974;2024-02-15T03:06:52;17.05;;;10.45;;
57561;SDS011;43397;51.530;5.974;2024-02-15T03:09:18;20.48;;;9.63;;
57561;SDS011;43397;51.530;5.974;2024-02-15T03:11:43;18.63;;;10.30;;
57561;SDS011;43397;51.530;5.974;2024-02-15T03:14:09;18.15;;;9.52;;
57561;SDS011;43397;51.530;5.974;2024-02-15T03:16:36;19.20;;;8.98;;
57561;SDS011;43397;51.530;5.974;2024-02-15T03:19:02;15.65;;;9.60;;
57561;SDS011;43397;51.530;5.974;2024-02-15T03:21:27;15.38;;;9.93;;
57561;SDS011;43397;51.530;5.974;2024-02-15T03:23:53;19.23;;;9.40;;
57561;SDS011;43397;51.530;5.974;2024-02-15T03:26:29;18.63;;;9.48;;
57561;SDS011;43397;51.530;5.974;2024-02-15T03:28:56;15.18;;;9.85;;
57561;SDS011;43397;51.530;5.974;2024-02-15T03:31:21;16.08;;;9.75;;
57561;SDS011;43397;51.530;5.974;2024-02-15T03:33:48;16.58;;;8.85;;
57561;SDS011;43397;51.530;5.974;2024-02-15T03:36:15;17.65;;;9.10;;
57561;SDS011;43397;51.530;5.974;2024-02-15T03:38:41;15.18;;;8.80;;
57561;SDS011;43397;51.530;5.974;2024-02-15T03:41:07;20.75;;;9.48;;
57561;SDS011;43397;51.530;5.974;2024-02-15T03:43:32;11.98;;;7.85;;
57561;SDS011;43397;51.530;5.974;2024-02-15T03:45:58;13.75;;;7.38;;
57561;SDS011;43397;51.530;5.974;2024-02-15T03:48:24;14.57;;;9.02;;
57561;SDS011;43397;51.530;5.974;2024-02-15T03:50:51;16.60;;;8.00;;
57561;SDS011;43397;51.530;5.974;2024-02-15T03:53:16;16.55;;;7.15;;
57561;SDS011;43397;51.530;5.974;2024-02-15T03:55:42;16.38;;;7.57;;
57561;SDS011;43397;51.530;5.974;2024-02-15T03:58:07;16.30;;;8.13;;
57561;SDS011;43397;51.530;5.974;2024-02-15T04:00:33;16.70;;;7.80;;
57561;SDS011;43397;51.530;5.974;2024-02-15T04:02:59;14.70;;;9.13;;
57561;SDS011;43397;51.530;5.974;2024-02-15T04:05:24;16.15;;;8.02;;
57561;SDS011;43397;51.530;5.974;2024-02-15T04:07:51;18.10;;;8.75;;
57561;SDS011;43397;51.530;5.974;2024-02-15T04:10:17;16.45;;;8.60;;
57561;SDS011;43397;51.530;5.974;2024-02-15T04:12:43;17.08;;;8.05;;
57561;SDS011;43397;51.530;5.974;2024-02-15T04:15:08;15.98;;;7.88;;
57561;SDS011;43397;51.530;5.974;2024-02-15T04:17:34;12.45;;;7.05;;
57561;SDS011;43397;51.530;5.974;2024-02-15T04:20:00;15.45;;;7.15;;
57561;SDS011;43397;51.530;5.974;2024-02-15T04:22:26;17.15;;;8.38;;
57561;SDS011;43397;51.530;5.974;2024-02-15T04:24:53;16.73;;;7.78;;
57561;SDS011;43397;51.530;5.974;2024-02-15T04:27:19;15.25;;;8.25;;
57561;SDS011;43397;51.530;5.974;2024-02-15T04:29:44;12.68;;;7.90;;
57561;SDS011;43397;51.530;5.974;2024-02-15T04:32:10;16.80;;;7.82;;
57561;SDS011;43397;51.530;5.974;2024-02-15T04:34:36;16.20;;;8.55;;
57561;SDS011;43397;51.530;5.974;2024-02-15T04:37:02;17.75;;;7.85;;
57561;SDS011;43397;51.530;5.974;2024-02-15T04:39:28;14.23;;;7.63;;
57561;SDS011;43397;51.530;5.974;2024-02-15T04:41:55;16.08;;;7.63;;
57561;SDS011;43397;51.530;5.974;2024-02-15T04:44:21;12.90;;;7.80;;
57561;SDS011;43397;51.530;5.974;2024-02-15T04:46:47;13.52;;;7.80;;
57561;SDS011;43397;51.530;5.974;2024-02-15T04:49:13;15.38;;;8.40;;
57561;SDS011;43397;51.530;5.974;2024-02-15T04:51:39;15.43;;;7.30;;
57561;SDS011;43397;51.530;5.974;2024-02-15T04:54:05;13.00;;;7.72;;
57561;SDS011;43397;51.530;5.974;2024-02-15T04:56:30;11.80;;;7.57;;
57561;SDS011;43397;51.530;5.974;2024-02-15T04:58:57;13.95;;;7.80;;
57561;SDS011;43397;51.530;5.974;2024-02-15T05:01:23;16.35;;;7.50;;
57561;SDS011;43397;51.530;5.974;2024-02-15T05:03:49;16.25;;;8.10;;
57561;SDS011;43397;51.530;5.974;2024-02-15T05:06:14;17.30;;;7.85;;
57561;SDS011;43397;51.530;5.974;2024-02-15T05:08:40;13.25;;;7.00;;
57561;SDS011;43397;51.530;5.974;2024-02-15T05:11:07;14.40;;;7.63;;
57561;SDS011;43397;51.530;5.974;2024-02-15T05:13:32;15.43;;;8.18;;
57561;SDS011;43397;51.530;5.974;2024-02-15T05:15:59;16.75;;;8.02;;
57561;SDS011;43397;51.530;5.974;2024-02-15T05:18:25;16.80;;;8.13;;
57561;SDS011;43397;51.530;5.974;2024-02-15T05:20:51;16.85;;;8.25;;
57561;SDS011;43397;51.530;5.974;2024-02-15T05:23:16;14.55;;;8.75;;
57561;SDS011;43397;51.530;5.974;2024-02-15T05:25:42;14.35;;;7.47;;
57561;SDS011;43397;51.530;5.974;2024-02-15T05:28:08;16.88;;;8.70;;
57561;SDS011;43397;51.530;5.974;2024-02-15T05:30:33;15.32;;;8.13;;
57561;SDS011;43397;51.530;5.974;2024-02-15T05:33:00;15.18;;;7.90;;
57561;SDS011;43397;51.530;5.974;2024-02-15T05:35:26;15.95;;;8.88;;
57561;SDS011;43397;51.530;5.974;2024-02-15T05:37:51;17.70;;;8.55;;
57561;SDS011;43397;51.530;5.974;2024-02-15T05:40:17;17.02;;;8.25;;
57561;SDS011;43397;51.530;5.974;2024-02-15T05:42:43;15.40;;;8.18;;
57561;SDS011;43397;51.530;5.974;2024-02-15T05:45:27;15.73;;;8.10;;
57561;SDS011;43397;51.530;5.974;2024-02-15T05:47:54;18.40;;;8.52;;
57561;SDS011;43397;51.530;5.974;2024-02-15T05:50:21;17.27;;;8.27;;
57561;SDS011;43397;51.530;5.974;2024-02-15T05:52:47;16.00;;;9.05;;
57561;SDS011;43397;51.530;5.974;2024-02-15T05:55:13;18.67;;;8.45;;
57561;SDS011;43397;51.530;5.974;2024-02-15T05:57:38;12.65;;;8.20;;
57561;SDS011;43397;51.530;5.974;2024-02-15T06:00:05;16.95;;;9.48;;
57561;SDS011;43397;51.530;5.974;2024-02-15T06:02:31;18.75;;;9.15;;
57561;SDS011;43397;51.530;5.974;2024-02-15T06:04:57;13.35;;;8.52;;
57561;SDS011;43397;51.530;5.974;2024-02-15T06:07:24;14.00;;;8.98;;
57561;SDS011;43397;51.530;5.974;2024-02-15T06:09:49;20.17;;;9.05;;
57561;SDS011;43397;51.530;5.974;2024-02-15T06:12:15;21.85;;;9.27;;
57561;SDS011;43397;51.530;5.974;2024-02-15T06:14:41;14.45;;;8.82;;
57561;SDS011;43397;51.530;5.974;2024-02-15T06:17:06;24.48;;;9.88;;
57561;SDS011;43397;51.530;5.974;2024-02-15T06:19:32;19.58;;;9.60;;
57561;SDS011;43397;51.530;5.974;2024-02-15T06:21:58;17.45;;;9.05;;
57561;SDS011;43397;51.530;5.974;2024-02-15T06:24:24;17.75;;;8.40;;
57561;SDS011;43397;51.530;5.974;2024-02-15T06:26:50;20.58;;;8.77;;
57561;SDS011;43397;51.530;5.974;2024-02-15T06:29:16;16.77;;;8.43;;
57561;SDS011;43397;51.530;5.974;2024-02-15T06:31:41;15.57;;;7.97;;
57561;SDS011;43397;51.530;5.974;2024-02-15T06:34:07;18.20;;;9.07;;
57561;SDS011;43397;51.530;5.974;2024-02-15T06:36:33;17.35;;;7.88;;
57561;SDS011;43397;51.530;5.974;2024-02-15T06:38:58;20.13;;;8.05;;
57561;SDS011;43397;51.530;5.974;2024-02-15T06:41:25;12.20;;;7.20;;
57561;SDS011;43397;51.530;5.974;2024-02-15T06:43:51;14.38;;;7.63;;
57561;SDS011;43397;51.530;5.974;2024-02-15T06:46:17;12.50;;;7.30;;
57561;SDS011;43397;51.530;5.974;2024-02-15T06:48:42;16.65;;;6.90;;
57561;SDS011;43397;51.530;5.974;2024-02-15T06:51:08;15.75;;;7.88;;
57561;SDS011;43397;51.530;5.974;2024-02-15T06:53:34;13.15;;;7.10;;
57561;SDS011;43397;51.530;5.974;2024-02-15T06:55:59;14.00;;;6.95;;
57561;SDS011;43397;51.530;5.974;2024-02-15T06:58:26;11.50;;;6.80;;
57561;SDS011;43397;51.530;5.974;2024-02-15T07:00:52;12.50;;;6.78;;
57561;SDS011;43397;51.530;5.974;2024-02-15T07:03:17;11.70;;;6.78;;
57561;SDS011;43397;51.530;5.974;2024-02-15T07:05:43;13.32;;;6.65;;
57561;SDS011;43397;51.530;5.974;2024-02-15T07:08:09;16.63;;;6.25;;
57561;SDS011;43397;51.530;5.974;2024-02-15T07:10:35;17.98;;;7.00;;
57561;SDS011;43397;51.530;5.974;2024-02-15T07:13:02;18.92;;;6.68;;
57561;SDS011;43397;51.530;5.974;2024-02-15T07:15:29;15.20;;;7.22;;
57561;SDS011;43397;51.530;5.974;2024-02-15T07:17:55;14.05;;;6.78;;
57561;SDS011;43397;51.530;5.974;2024-02-15T07:20:21;14.05;;;7.05;;
57561;SDS011;43397;51.530;5.974;2024-02-15T07:22:46;12.30;;;6.10;;
57561;SDS011;43397;51.530;5.974;2024-02-15T07:25:12;15.40;;;6.65;;
57561;SDS011;43397;51.530;5.974;2024-02-15T07:27:37;13.00;;;6.32;;
57561;SDS011;43397;51.530;5.974;2024-02-15T07:30:03;10.65;;;5.85;;
57561;SDS011;43397;51.530;5.974;2024-02-15T07:32:31;12.27;;;6.68;;
57561;SDS011;43397;51.530;5.974;2024-02-15T07:34:57;14.48;;;6.38;;
57561;SDS011;43397;51.530;5.974;2024-02-15T07:37:22;12.48;;;5.93;;
57561;SDS011;43397;51.530;5.974;2024-02-15T07:39:48;13.98;;;6.32;;
57561;SDS011;43397;51.530;5.974;2024-02-15T07:42:14;15.18;;;6.05;;
57561;SDS011;43397;51.530;5.974;2024-02-15T07:44:39;9.52;;;6.60;;
57561;SDS011;43397;51.530;5.974;2024-02-15T07:47:05;13.48;;;6.40;;
57561;SDS011;43397;51.530;5.974;2024-02-15T07:49:32;16.45;;;6.60;;
57561;SDS011;43397;51.530;5.974;2024-02-15T07:51:58;11.98;;;5.50;;
57561;SDS011;43397;51.530;5.974;2024-02-15T07:54:23;13.00;;;5.28;;
57561;SDS011;43397;51.530;5.974;2024-02-15T07:56:49;13.00;;;5.63;;
57561;SDS011;43397;51.530;5.974;2024-02-15T07:59:15;13.27;;;5.90;;
57561;SDS011;43397;51.530;5.974;2024-02-15T08:01:41;13.90;;;5.45;;
57561;SDS011;43397;51.530;5.974;2024-02-15T08:04:06;12.15;;;6.32;;
57561;SDS011;43397;51.530;5.974;2024-02-15T08:06:33;15.23;;;6.18;;
57561;SDS011;43397;51.530;5.974;2024-02-15T08:08:59;12.00;;;6.05;;
57561;SDS011;43397;51.530;5.974;2024-02-15T08:11:25;13.88;;;5.97;;
57561;SDS011;43397;51.530;5.974;2024-02-15T08:13:51;14.10;;;5.40;;
57561;SDS011;43397;51.530;5.974;2024-02-15T08:16:17;8.73;;;5.15;;
57561;SDS011;43397;51.530;5.974;2024-02-15T08:18:43;10.32;;;4.95;;
57561;SDS011;43397;51.530;5.974;2024-02-15T08:21:09;15.50;;;5.50;;
57561;SDS011;43397;51.530;5.974;2024-02-15T08:23:36;8.85;;;5.75;;
57561;SDS011;43397;51.530;5.974;2024-02-15T08:26:02;13.45;;;4.50;;
57561;SDS011;43397;51.530;5.974;2024-02-15T08:28:28;11.45;;;5.25;;
57561;SDS011;43397;51.530;5.974;2024-02-15T08:30:54;11.88;;;4.72;;
57561;SDS011;43397;51.530;5.974;2024-02-15T08:33:19;8.95;;;5.35;;
57561;SDS011;43397;51.530;5.974;2024-02-15T08:35:45;1.65;;;1.05;;
57561;SDS011;43397;51.530;5.974;2024-02-15T08:38:11;0.52;;;0.50;;
57561;SDS011;43397;51.530;5.974;2024-02-15T08:40:38;0.73;;;0.73;;
57561;SDS011;43397;51.530;5.974;2024-02-15T08:43:03;0.68;;;0.63;;
57561;SDS011;43397;51.530;5.974;2024-02-15T08:45:29;0.30;;;0.30;;
57561;SDS011;43397;51.530;5.974;2024-02-15T08:47:55;0.25;;;0.22;;
57561;SDS011;43397;51.530;5.974;2024-02-15T08:50:20;1.30;;;1.20;;
57561;SDS011;43397;51.530;5.974;2024-02-15T08:52:46;0.32;;;0.32;;
57561;SDS011;43397;51.530;5.974;2024-02-15T08:55:12;1.95;;;1.27;;
57561;SDS011;43397;51.530;5.974;2024-02-15T08:57:39;0.20;;;0.20;;
57561;SDS011;43397;51.530;5.974;2024-02-15T09:00:05;0.25;;;0.22;;
57561;SDS011;43397;51.530;5.974;2024-02-15T09:02:32;0.47;;;0.47;;
57561;SDS011;43397;51.530;5.974;2024-02-15T09:04:58;0.30;;;0.30;;
57561;SDS011;43397;51.530;5.974;2024-02-15T09:07:23;2.03;;;1.67;;
57561;SDS011;43397;51.530;5.974;2024-02-15T09:09:49;0.52;;;0.32;;
57561;SDS011;43397;51.530;5.974;2024-02-15T09:12:15;0.43;;;0.43;;
57561;SDS011;43397;51.530;5.974;2024-02-15T09:14:42;0.40;;;0.40;;
57561;SDS011;43397;51.530;5.974;2024-02-15T09:17:07;0.68;;;0.68;;
57561;SDS011;43397;51.530;5.974;2024-02-15T09:19:33;0.30;;;0.30;;
57561;SDS011;43397;51.530;5.974;2024-02-15T09:21:59;0.17;;;0.17;;
57561;SDS011;43397;51.530;5.974;2024-02-15T09:24:24;0.30;;;0.30;;
57561;SDS011;43397;51.530;5.974;2024-02-15T09:26:50;1.10;;;0.77;;
57561;SDS011;43397;51.530;5.974;2024-02-15T09:29:16;0.90;;;0.90;;
57561;SDS011;43397;51.530;5.974;2024-02-15T09:31:43;0.47;;;0.47;;
57561;SDS011;43397;51.530;5.974;2024-02-15T09:34:08;2.72;;;0.75;;
57561;SDS011;43397;51.530;5.974;2024-02-15T09:36:34;0.63;;;0.40;;
57561;SDS011;43397;51.530;5.974;2024-02-15T09:39:00;0.80;;;0.80;;
57561;SDS011;43397;51.530;5.974;2024-02-15T09:41:26;0.20;;;0.20;;
57561;SDS011;43397;51.530;5.974;2024-02-15T09:43:51;0.35;;;0.35;;
57561;SDS011;43397;51.530;5.974;2024-02-15T09:46:17;0.50;;;0.50;;
57561;SDS011;43397;51.530;5.974;2024-02-15T09:48:44;1.90;;;1.80;;
57561;SDS011;43397;51.530;5.974;2024-02-15T09:51:15;0.22;;;0.22;;
57561;SDS011;43397;51.530;5.974;2024-02-15T09:53:43;0.40;;;0.40;;
57561;SDS011;43397;51.530;5.974;2024-02-15T09:56:09;0.20;;;0.20;;
57561;SDS011;43397;51.530;5.974;2024-02-15T09:58:36;1.13;;;1.05;;
57561;SDS011;43397;51.530;5.974;2024-02-15T10:01:02;1.45;;;0.50;;
57561;SDS011;43397;51.530;5.974;2024-02-15T10:03:29;0.40;;;0.40;;
57561;SDS011;43397;51.530;5.974;2024-02-15T10:05:56;0.40;;;0.40;;
57561;SDS011;43397;51.530;5.974;2024-02-15T10:08:22;0.52;;;0.50;;
57561;SDS011;43397;51.530;5.974;2024-02-15T10:10:48;0.60;;;0.60;;
57561;SDS011;43397;51.530;5.974;2024-02-15T10:13:30;0.30;;;0.30;;
57561;SDS011;43397;51.530;5.974;2024-02-15T10:15:56;0.30;;;0.30;;
57561;SDS011;43397;51.530;5.974;2024-02-15T10:18:22;0.20;;;0.20;;
57561;SDS011;43397;51.530;5.974;2024-02-15T10:20:56;0.52;;;0.52;;
57561;SDS011;43397;51.530;5.974;2024-02-15T10:23:24;0.30;;;0.30;;
57561;SDS011;43397;51.530;5.974;2024-02-15T10:25:49;0.77;;;0.77;;
57561;SDS011;43397;51.530;5.974;2024-02-15T10:28:20;0.73;;;0.35;;
57561;SDS011;43397;51.530;5.974;2024-02-15T10:30:46;0.20;;;0.20;;
57561;SDS011;43397;51.530;5.974;2024-02-15T10:33:17;0.30;;;0.30;;
57561;SDS011;43397;51.530;5.974;2024-02-15T10:35:44;0.22;;;0.22;;
57561;SDS011;43397;51.530;5.974;2024-02-15T10:38:11;0.22;;;0.22;;
57561;SDS011;43397;51.530;5.974;2024-02-15T10:40:37;0.30;;;0.30;;
57561;SDS011;43397;51.530;5.974;2024-02-15T10:43:04;0.85;;;0.50;;
57561;SDS011;43397;51.530;5.974;2024-02-15T10:45:30;2.53;;;1.10;;
57561;SDS011;43397;51.530;5.974;2024-02-15T10:47:56;10.07;;;4.15;;
57561;SDS011;43397;51.530;5.974;2024-02-15T10:50:22;9.95;;;5.35;;
57561;SDS011;43397;51.530;5.974;2024-02-15T10:52:51;11.77;;;4.45;;
57561;SDS011;43397;51.530;5.974;2024-02-15T10:55:24;8.07;;;4.00;;
57561;SDS011;43397;51.530;5.974;2024-02-15T10:58:03;9.50;;;4.10;;
57561;SDS011;43397;51.530;5.974;2024-02-15T11:00:30;6.97;;;3.40;;
57561;SDS011;43397;51.530;5.974;2024-02-15T11:03:00;8.40;;;4.75;;
57561;SDS011;43397;51.530;5.974;2024-02-15T11:07:55;8.75;;;3.78;;
57561;SDS011;43397;51.530;5.974;2024-02-15T11:10:20;7.03;;;2.92;;
57561;SDS011;43397;51.530;5.974;2024-02-15T11:12:48;7.68;;;3.20;;
57561;SDS011;43397;51.530;5.974;2024-02-15T11:18:05;7.18;;;3.25;;
57561;SDS011;43397;51.530;5.974;2024-02-15T11:20:46;8.55;;;3.00;;
57561;SDS011;43397;51.530;5.974;2024-02-15T11:23:12;9.23;;;2.88;;
57561;SDS011;43397;51.530;5.974;2024-02-15T11:25:50;7.82;;;3.45;;
57561;SDS011;43397;51.530;5.974;2024-02-15T11:31:06;7.35;;;2.70;;
57561;SDS011;43397;51.530;5.974;2024-02-15T11:33:33;6.43;;;3.05;;
57561;SDS011;43397;51.530;5.974;2024-02-15T11:36:03;9.63;;;3.25;;
57561;SDS011;43397;51.530;5.974;2024-02-15T11:38:30;12.40;;;3.00;;
57561;SDS011;43397;51.530;5.974;2024-02-15T11:41:00;6.82;;;2.50;;
57561;SDS011;43397;51.530;5.974;2024-02-15T11:46:23;9.40;;;2.85;;
57561;SDS011;43397;51.530;5.974;2024-02-15T11:48:50;6.82;;;2.40;;
57561;SDS011;43397;51.530;5.974;2024-02-15T11:51:29;8.10;;;2.78;;
57561;SDS011;43397;51.530;5.974;2024-02-15T11:53:59;9.50;;;3.00;;
57561;SDS011;43397;51.530;5.974;2024-02-15T11:56:28;7.85;;;2.67;;
57561;SDS011;43397;51.530;5.974;2024-02-15T11:59:03;8.07;;;2.67;;
57561;SDS011;43397;51.530;5.974;2024-02-15T12:01:30;7.32;;;2.58;;
57561;SDS011;43397;51.530;5.974;2024-02-15T12:03:56;9.18;;;2.40;;
57561;SDS011;43397;51.530;5.974;2024-02-15T12:06:22;5.63;;;2.47;;
57561;SDS011;43397;51.530;5.974;2024-02-15T12:08:48;7.78;;;2.42;;
57561;SDS011;43397;51.530;5.974;2024-02-15T12:11:15;7.03;;;2.15;;
57561;SDS011;43397;51.530;5.974;2024-02-15T12:13:42;5.88;;;2.38;;
57561;SDS011;43397;51.530;5.974;2024-02-15T12:16:07;6.13;;;2.20;;
57561;SDS011;43397;51.530;5.974;2024-02-15T12:18:33;6.82;;;2.30;;
57561;SDS011;43397;51.530;5.974;2024-02-15T12:20:59;5.78;;;1.98;;
57561;SDS011;43397;51.530;5.974;2024-02-15T12:23:25;6.20;;;1.90;;
57561;SDS011;43397;51.530;5.974;2024-02-15T12:25:51;7.68;;;2.15;;
57561;SDS011;43397;51.530;5.974;2024-02-15T12:28:17;5.60;;;1.73;;
57561;SDS011;43397;51.530;5.974;2024-02-15T12:30:44;6.05;;;1.77;;
57561;SDS011;43397;51.530;5.974;2024-02-15T12:33:10;6.53;;;1.90;;
57561;SDS011;43397;51.530;5.974;2024-02-15T12:35:37;5.78;;;2.10;;
57561;SDS011;43397;51.530;5.974;2024-02-15T12:38:02;6.20;;;1.75;;
57561;SDS011;43397;51.530;5.974;2024-02-15T12:40:30;3.38;;;1.58;;
57561;SDS011;43397;51.530;5.974;2024-02-15T12:42:56;4.45;;;1.63;;
57561;SDS011;43397;51.530;5.974;2024-02-15T12:45:22;5.45;;;2.03;;
57561;SDS011;43397;51.530;5.974;2024-02-15T12:47:52;5.80;;;1.92;;
57561;SDS011;43397;51.530;5.974;2024-02-15T12:50:20;6.13;;;1.98;;
57561;SDS011;43397;51.530;5.974;2024-02-15T12:52:46;6.05;;;2.15;;
57561;SDS011;43397;51.530;5.974;2024-02-15T12:55:14;7.80;;;2.65;;
57561;SDS011;43397;51.530;5.974;2024-02-15T12:57:40;7.82;;;2.00;;
57561;SDS011;43397;51.530;5.974;2024-02-15T13:00:07;3.00;;;1.15;;
57561;SDS011;43397;51.530;5.974;2024-02-15T13:02:34;4.55;;;1.52;;
57561;SDS011;43397;51.530;5.974;2024-02-15T13:05:01;5.07;;;1.40;;
57561;SDS011;43397;51.530;5.974;2024-02-15T13:07:26;6.70;;;1.77;;
57561;SDS011;43397;51.530;5.974;2024-02-15T13:09:52;4.13;;;1.60;;
57561;SDS011;43397;51.530;5.974;2024-02-15T13:12:17;5.70;;;1.67;;
57561;SDS011;43397;51.530;5.974;2024-02-15T13:14:43;4.93;;;1.45;;
57561;SDS011;43397;51.530;5.974;2024-02-15T13:17:09;6.68;;;1.90;;
57561;SDS011;43397;51.530;5.974;2024-02-15T13:19:35;5.03;;;1.33;;
57561;SDS011;43397;51.530;5.974;2024-02-15T13:22:01;4.40;;;1.30;;
57561;SDS011;43397;51.530;5.974;2024-02-15T13:24:27;5.55;;;1.85;;
57561;SDS011;43397;51.530;5.974;2024-02-15T13:26:53;5.60;;;1.50;;
57561;SDS011;43397;51.530;5.974;2024-02-15T13:29:18;5.07;;;1.50;;
57561;SDS011;43397;51.530;5.974;2024-02-15T13:31:44;4.57;;;1.42;;
57561;SDS011;43397;51.530;5.974;2024-02-15T13:34:10;5.50;;;1.60;;
57561;SDS011;43397;51.530;5.974;2024-02-15T13:36:35;6.07;;;1.30;;
57561;SDS011;43397;51.530;5.974;2024-02-15T13:39:02;5.78;;;1.40;;
57561;SDS011;43397;51.530;5.974;2024-02-15T13:41:28;3.83;;;1.20;;
57561;SDS011;43397;51.530;5.974;2024-02-15T13:43:54;3.38;;;1.13;;
57561;SDS011;43397;51.530;5.974;2024-02-15T13:46:20;4.28;;;1.10;;
57561;SDS011;43397;51.530;5.974;2024-02-15T13:48:45;6.78;;;1.33;;
57561;SDS011;43397;51.530;5.974;2024-02-15T13:51:11;3.35;;;1.00;;
57561;SDS011;43397;51.530;5.974;2024-02-15T13:53:37;6.82;;;1.23;;
57561;SDS011;43397;51.530;5.974;2024-02-15T13:56:04;3.83;;;1.70;;
57561;SDS011;43397;51.530;5.974;2024-02-15T13:58:30;3.70;;;1.10;;
57561;SDS011;43397;51.530;5.974;2024-02-15T14:00:55;6.57;;;1.55;;
57561;SDS011;43397;51.530;5.974;2024-02-15T14:03:21;6.75;;;1.30;;
57561;SDS011;43397;51.530;5.974;2024-02-15T14:05:47;3.72;;;1.15;;
57561;SDS011;43397;51.530;5.974;2024-02-15T14:08:12;3.38;;;1.10;;
57561;SDS011;43397;51.530;5.974;2024-02-15T14:10:38;3.42;;;1.10;;
57561;SDS011;43397;51.530;5.974;2024-02-15T14:13:05;5.32;;;1.20;;
57561;SDS011;43397;51.530;5.974;2024-02-15T14:15:31;5.13;;;1.27;;
57561;SDS011;43397;51.530;5.974;2024-02-15T14:17:58;5.05;;;1.40;;
57561;SDS011;43397;51.530;5.974;2024-02-15T14:20:23;3.83;;;1.05;;
57561;SDS011;43397;51.530;5.974;2024-02-15T14:22:50;4.53;;;1.20;;
57561;SDS011;43397;51.530;5.974;2024-02-15T14:25:16;4.90;;;1.20;;
57561;SDS011;43397;51.530;5.974;2024-02-15T14:27:42;4.13;;;1.20;;
57561;SDS011;43397;51.530;5.974;2024-02-15T14:30:09;5.30;;;1.30;;
57561;SDS011;43397;51.530;5.974;2024-02-15T14:32:35;2.90;;;1.00;;
57561;SDS011;43397;51.530;5.974;2024-02-15T14:35:01;5.43;;;1.30;;
57561;SDS011;43397;51.530;5.974;2024-02-15T14:37:26;4.25;;;1.30;;
57561;SDS011;43397;51.530;5.974;2024-02-15T14:39:52;3.45;;;1.10;;
57561;SDS011;43397;51.530;5.974;2024-02-15T14:42:19;4.90;;;1.00;;
57561;SDS011;43397;51.530;5.974;2024-02-15T14:44:44;3.72;;;1.10;;